sensor_id;sensor_type;location;lat;lon;timestamp;temperature;humidity
10121;DHT22;5100;45.176;5.714;2023-06-10T00:00:43;24.30;73.40
10121;DHT22;5100;45.176;5.714;2023-06-10T00:03:10;24.30;73.30
10121;DHT22;5100;45.176;5.714;2023-06-10T00:05:36;24.30;73.30
10121;DHT22;5100;45.176;5.714;2023-06-10T00:08:07;24.30;73.40
10121;DHT22;5100;45.176;5.714;2023-06-10T00:10:38;24.30;73.40
10121;DHT22;5100;45.176;5.714;2023-06-10T00:13:05;24.30;73.30
10121;DHT22;5100;45.176;5.714;2023-06-10T00:15:33;24.30;73.30
10121;DHT22;5100;45.176;5.714;2023-06-10T00:18:00;24.30;73.40
10121;DHT22;5100;45.176;5.714;2023-06-10T00:20:26;24.20;73.40
10121;DHT22;5100;45.176;5.714;2023-06-10T00:22:52;24.20;73.10
10121;DHT22;5100;45.176;5.714;2023-06-10T00:25:19;24.20;72.80
10121;DHT22;5100;45.176;5.714;2023-06-10T00:27:45;24.20;72.40
10121;DHT22;5100;45.176;5.714;2023-06-10T00:30:11;24.20;72.10
10121;DHT22;5100;45.176;5.714;2023-06-10T00:32:38;24.20;72.00
10121;DHT22;5100;45.176;5.714;2023-06-10T00:35:05;24.20;71.90
10121;DHT22;5100;45.176;5.714;2023-06-10T00:37:32;24.20;71.80
10121;DHT22;5100;45.176;5.714;2023-06-10T00:40:02;24.20;71.70
10121;DHT22;5100;45.176;5.714;2023-06-10T00:42:28;24.20;71.80
10121;DHT22;5100;45.176;5.714;2023-06-10T00:44:54;24.20;71.80
10121;DHT22;5100;45.176;5.714;2023-06-10T00:47:20;24.20;71.70
10121;DHT22;5100;45.176;5.714;2023-06-10T00:49:48;24.10;71.60
10121;DHT22;5100;45.176;5.714;2023-06-10T00:52:16;24.10;71.50
10121;DHT22;5100;45.176;5.714;2023-06-10T00:54:42;24.10;71.40
10121;DHT22;5100;45.176;5.714;2023-06-10T00:57:09;24.10;71.30
10121;DHT22;5100;45.176;5.714;2023-06-10T00:59:36;24.10;71.20
10121;DHT22;5100;45.176;5.714;2023-06-10T01:02:03;24.10;71.10
10121;DHT22;5100;45.176;5.714;2023-06-10T01:04:29;24.10;71.00
10121;DHT22;5100;45.176;5.714;2023-06-10T01:07:22;24.10;70.80
10121;DHT22;5100;45.176;5.714;2023-06-10T01:10:01;24.10;70.50
10121;DHT22;5100;45.176;5.714;2023-06-10T01:12:52;24.10;70.20
10121;DHT22;5100;45.176;5.714;2023-06-10T01:15:21;24.10;70.20
10121;DHT22;5100;45.176;5.714;2023-06-10T01:17:58;24.10;70.40
10121;DHT22;5100;45.176;5.714;2023-06-10T01:20:26;24.00;70.60
10121;DHT22;5100;45.176;5.714;2023-06-10T01:22:54;24.00;71.00
10121;DHT22;5100;45.176;5.714;2023-06-10T01:25:21;24.00;71.50
10121;DHT22;5100;45.176;5.714;2023-06-10T01:33:31;24.00;72.50
10121;DHT22;5100;45.176;5.714;2023-06-10T01:36:00;24.00;72.60
10121;DHT22;5100;45.176;5.714;2023-06-10T01:38:32;24.00;72.70
10121;DHT22;5100;45.176;5.714;2023-06-10T01:41:00;24.00;72.80
10121;DHT22;5100;45.176;5.714;2023-06-10T01:43:26;24.00;72.80
10121;DHT22;5100;45.176;5.714;2023-06-10T01:45:52;24.00;72.50
10121;DHT22;5100;45.176;5.714;2023-06-10T01:48:18;24.00;72.30
10121;DHT22;5100;45.176;5.714;2023-06-10T01:50:44;24.00;72.20
10121;DHT22;5100;45.176;5.714;2023-06-10T01:53:10;24.00;72.20
10121;DHT22;5100;45.176;5.714;2023-06-10T01:55:37;24.00;72.10
10121;DHT22;5100;45.176;5.714;2023-06-10T01:58:02;24.00;72.10
10121;DHT22;5100;45.176;5.714;2023-06-10T02:00:28;24.00;72.00
10121;DHT22;5100;45.176;5.714;2023-06-10T02:02:55;24.00;72.00
10121;DHT22;5100;45.176;5.714;2023-06-10T02:05:20;24.00;72.00
10121;DHT22;5100;45.176;5.714;2023-06-10T02:07:48;23.90;72.10
10121;DHT22;5100;45.176;5.714;2023-06-10T02:10:14;23.90;72.10
10121;DHT22;5100;45.176;5.714;2023-06-10T02:12:40;23.90;72.20
10121;DHT22;5100;45.176;5.714;2023-06-10T02:15:06;23.90;72.20
10121;DHT22;5100;45.176;5.714;2023-06-10T02:17:32;23.90;72.30
10121;DHT22;5100;45.176;5.714;2023-06-10T02:19:59;23.90;72.40
10121;DHT22;5100;45.176;5.714;2023-06-10T02:22:25;23.90;72.40
10121;DHT22;5100;45.176;5.714;2023-06-10T02:24:51;23.90;72.40
10121;DHT22;5100;45.176;5.714;2023-06-10T02:27:18;23.80;72.50
10121;DHT22;5100;45.176;5.714;2023-06-10T02:29:44;23.80;72.60
10121;DHT22;5100;45.176;5.714;2023-06-10T02:32:10;23.80;72.80
10121;DHT22;5100;45.176;5.714;2023-06-10T02:34:36;23.80;72.90
10121;DHT22;5100;45.176;5.714;2023-06-10T02:37:03;23.80;73.00
10121;DHT22;5100;45.176;5.714;2023-06-10T02:39:29;23.80;73.10
10121;DHT22;5100;45.176;5.714;2023-06-10T02:41:56;23.80;73.10
10121;DHT22;5100;45.176;5.714;2023-06-10T02:44:22;23.80;73.20
10121;DHT22;5100;45.176;5.714;2023-06-10T02:46:48;23.70;73.20
10121;DHT22;5100;45.176;5.714;2023-06-10T02:49:14;23.70;73.40
10121;DHT22;5100;45.176;5.714;2023-06-10T02:51:40;23.70;73.40
10121;DHT22;5100;45.176;5.714;2023-06-10T02:54:07;23.70;73.40
10121;DHT22;5100;45.176;5.714;2023-06-10T02:56:34;23.70;73.50
10121;DHT22;5100;45.176;5.714;2023-06-10T02:59:01;23.70;73.50
10121;DHT22;5100;45.176;5.714;2023-06-10T03:01:28;23.70;73.50
10121;DHT22;5100;45.176;5.714;2023-06-10T03:03:54;23.70;73.50
10121;DHT22;5100;45.176;5.714;2023-06-10T03:06:22;23.70;73.50
10121;DHT22;5100;45.176;5.714;2023-06-10T03:08:51;23.70;73.50
10121;DHT22;5100;45.176;5.714;2023-06-10T03:11:17;23.70;73.50
10121;DHT22;5100;45.176;5.714;2023-06-10T03:13:45;23.70;73.50
10121;DHT22;5100;45.176;5.714;2023-06-10T03:16:13;23.70;73.50
10121;DHT22;5100;45.176;5.714;2023-06-10T03:18:40;23.60;73.50
10121;DHT22;5100;45.176;5.714;2023-06-10T03:21:07;23.60;73.50
10121;DHT22;5100;45.176;5.714;2023-06-10T03:23:35;23.60;73.50
10121;DHT22;5100;45.176;5.714;2023-06-10T03:26:02;23.60;73.50
10121;DHT22;5100;45.176;5.714;2023-06-10T03:28:28;23.60;73.50
10121;DHT22;5100;45.176;5.714;2023-06-10T03:30:55;23.60;73.50
10121;DHT22;5100;45.176;5.714;2023-06-10T03:33:22;23.60;73.50
10121;DHT22;5100;45.176;5.714;2023-06-10T03:35:48;23.60;73.20
10121;DHT22;5100;45.176;5.714;2023-06-10T03:38:15;23.60;72.90
10121;DHT22;5100;45.176;5.714;2023-06-10T03:40:41;23.60;72.90
10121;DHT22;5100;45.176;5.714;2023-06-10T03:43:07;23.60;72.80
10121;DHT22;5100;45.176;5.714;2023-06-10T03:45:34;23.60;72.70
10121;DHT22;5100;45.176;5.714;2023-06-10T03:48:01;23.60;72.60
10121;DHT22;5100;45.176;5.714;2023-06-10T03:50:29;23.60;72.50
10121;DHT22;5100;45.176;5.714;2023-06-10T03:52:56;23.60;72.50
10121;DHT22;5100;45.176;5.714;2023-06-10T03:55:22;23.60;72.50
10121;DHT22;5100;45.176;5.714;2023-06-10T03:57:49;23.60;72.40
10121;DHT22;5100;45.176;5.714;2023-06-10T04:00:17;23.60;72.30
10121;DHT22;5100;45.176;5.714;2023-06-10T04:02:43;23.60;72.20
10121;DHT22;5100;45.176;5.714;2023-06-10T04:05:19;23.60;72.10
10121;DHT22;5100;45.176;5.714;2023-06-10T04:07:47;23.50;72.00
10121;DHT22;5100;45.176;5.714;2023-06-10T04:10:15;23.50;72.00
10121;DHT22;5100;45.176;5.714;2023-06-10T04:12:41;23.50;72.00
10121;DHT22;5100;45.176;5.714;2023-06-10T04:15:08;23.50;72.20
10121;DHT22;5100;45.176;5.714;2023-06-10T04:17:34;23.40;72.20
10121;DHT22;5100;45.176;5.714;2023-06-10T04:20:01;23.40;72.20
10121;DHT22;5100;45.176;5.714;2023-06-10T04:22:29;23.40;72.30
10121;DHT22;5100;45.176;5.714;2023-06-10T04:24:55;23.40;72.30
10121;DHT22;5100;45.176;5.714;2023-06-10T04:27:21;23.40;72.40
10121;DHT22;5100;45.176;5.714;2023-06-10T04:29:48;23.40;72.30
10121;DHT22;5100;45.176;5.714;2023-06-10T04:32:15;23.40;72.30
10121;DHT22;5100;45.176;5.714;2023-06-10T04:34:41;23.40;72.40
10121;DHT22;5100;45.176;5.714;2023-06-10T04:37:08;23.40;72.40
10121;DHT22;5100;45.176;5.714;2023-06-10T04:39:34;23.40;72.40
10121;DHT22;5100;45.176;5.714;2023-06-10T04:42:02;23.40;72.50
10121;DHT22;5100;45.176;5.714;2023-06-10T04:44:28;23.40;72.50
10121;DHT22;5100;45.176;5.714;2023-06-10T04:46:55;23.40;72.60
10121;DHT22;5100;45.176;5.714;2023-06-10T04:49:22;23.40;72.80
10121;DHT22;5100;45.176;5.714;2023-06-10T04:51:48;23.40;73.00
10121;DHT22;5100;45.176;5.714;2023-06-10T04:54:14;23.50;72.90
10121;DHT22;5100;45.176;5.714;2023-06-10T04:56:41;23.50;72.80
10121;DHT22;5100;45.176;5.714;2023-06-10T04:59:07;23.50;72.80
10121;DHT22;5100;45.176;5.714;2023-06-10T05:01:34;23.60;72.80
10121;DHT22;5100;45.176;5.714;2023-06-10T05:04:00;23.60;72.90
10121;DHT22;5100;45.176;5.714;2023-06-10T05:06:26;23.60;73.20
10121;DHT22;5100;45.176;5.714;2023-06-10T05:08:52;23.60;73.40
10121;DHT22;5100;45.176;5.714;2023-06-10T05:11:18;23.60;73.50
10121;DHT22;5100;45.176;5.714;2023-06-10T05:13:43;23.70;73.40
10121;DHT22;5100;45.176;5.714;2023-06-10T05:16:10;23.70;73.20
10121;DHT22;5100;45.176;5.714;2023-06-10T05:18:36;23.70;73.20
10121;DHT22;5100;45.176;5.714;2023-06-10T05:21:02;23.70;73.20
10121;DHT22;5100;45.176;5.714;2023-06-10T05:23:40;23.70;73.40
10121;DHT22;5100;45.176;5.714;2023-06-10T05:26:07;23.70;73.50
10121;DHT22;5100;45.176;5.714;2023-06-10T05:28:33;23.70;73.50
10121;DHT22;5100;45.176;5.714;2023-06-10T05:30:59;23.80;73.40
10121;DHT22;5100;45.176;5.714;2023-06-10T05:33:25;23.80;73.20
10121;DHT22;5100;45.176;5.714;2023-06-10T05:35:51;23.80;72.70
10121;DHT22;5100;45.176;5.714;2023-06-10T05:38:17;23.80;72.60
10121;DHT22;5100;45.176;5.714;2023-06-10T05:40:43;23.80;72.60
10121;DHT22;5100;45.176;5.714;2023-06-10T05:43:09;23.80;72.50
10121;DHT22;5100;45.176;5.714;2023-06-10T05:45:37;23.80;72.50
10121;DHT22;5100;45.176;5.714;2023-06-10T05:48:03;23.80;72.50
10121;DHT22;5100;45.176;5.714;2023-06-10T05:50:29;23.80;72.50
10121;DHT22;5100;45.176;5.714;2023-06-10T05:52:55;23.80;72.20
10121;DHT22;5100;45.176;5.714;2023-06-10T05:55:21;23.80;72.00
10121;DHT22;5100;45.176;5.714;2023-06-10T05:57:47;23.80;71.80
10121;DHT22;5100;45.176;5.714;2023-06-10T06:00:13;23.80;71.60
10121;DHT22;5100;45.176;5.714;2023-06-10T06:02:41;23.80;71.50
10121;DHT22;5100;45.176;5.714;2023-06-10T06:05:07;23.80;71.30
10121;DHT22;5100;45.176;5.714;2023-06-10T06:07:33;23.80;71.20
10121;DHT22;5100;45.176;5.714;2023-06-10T06:09:59;23.80;71.10
10121;DHT22;5100;45.176;5.714;2023-06-10T06:12:25;23.80;70.90
10121;DHT22;5100;45.176;5.714;2023-06-10T06:14:51;23.90;70.70
10121;DHT22;5100;45.176;5.714;2023-06-10T06:17:17;23.90;70.70
10121;DHT22;5100;45.176;5.714;2023-06-10T06:19:43;23.90;70.80
10121;DHT22;5100;45.176;5.714;2023-06-10T06:22:09;23.90;70.80
10121;DHT22;5100;45.176;5.714;2023-06-10T06:24:36;23.90;70.80
10121;DHT22;5100;45.176;5.714;2023-06-10T06:27:02;24.00;70.80
10121;DHT22;5100;45.176;5.714;2023-06-10T06:29:28;24.00;71.00
10121;DHT22;5100;45.176;5.714;2023-06-10T06:31:55;24.00;71.00
10121;DHT22;5100;45.176;5.714;2023-06-10T06:34:21;24.00;70.90
10121;DHT22;5100;45.176;5.714;2023-06-10T06:36:47;24.10;71.10
10121;DHT22;5100;45.176;5.714;2023-06-10T06:39:14;24.10;71.30
10121;DHT22;5100;45.176;5.714;2023-06-10T06:41:41;24.20;71.40
10121;DHT22;5100;45.176;5.714;2023-06-10T06:44:07;24.20;71.50
10121;DHT22;5100;45.176;5.714;2023-06-10T06:46:35;24.10;71.60
10121;DHT22;5100;45.176;5.714;2023-06-10T06:49:01;24.10;71.70
10121;DHT22;5100;45.176;5.714;2023-06-10T06:51:27;24.00;71.90
10121;DHT22;5100;45.176;5.714;2023-06-10T06:53:54;23.90;72.20
10121;DHT22;5100;45.176;5.714;2023-06-10T06:56:24;23.90;72.30
10121;DHT22;5100;45.176;5.714;2023-06-10T06:58:50;23.80;72.40
10121;DHT22;5100;45.176;5.714;2023-06-10T07:01:16;23.80;72.40
10121;DHT22;5100;45.176;5.714;2023-06-10T07:03:42;23.80;72.50
10121;DHT22;5100;45.176;5.714;2023-06-10T07:06:08;23.80;72.40
10121;DHT22;5100;45.176;5.714;2023-06-10T07:08:35;23.80;72.30
10121;DHT22;5100;45.176;5.714;2023-06-10T07:11:02;23.80;72.30
10121;DHT22;5100;45.176;5.714;2023-06-10T07:13:27;23.80;72.50
10121;DHT22;5100;45.176;5.714;2023-06-10T07:15:54;23.80;72.50
10121;DHT22;5100;45.176;5.714;2023-06-10T07:18:20;23.80;72.50
10121;DHT22;5100;45.176;5.714;2023-06-10T07:20:46;23.90;72.50
10121;DHT22;5100;45.176;5.714;2023-06-10T07:23:12;24.00;72.40
10121;DHT22;5100;45.176;5.714;2023-06-10T07:25:38;24.10;72.20
10121;DHT22;5100;45.176;5.714;2023-06-10T07:28:04;24.20;72.10
10121;DHT22;5100;45.176;5.714;2023-06-10T07:30:30;24.40;72.00
10121;DHT22;5100;45.176;5.714;2023-06-10T07:32:56;24.50;71.70
10121;DHT22;5100;45.176;5.714;2023-06-10T07:35:22;24.50;71.30
10121;DHT22;5100;45.176;5.714;2023-06-10T07:37:48;24.60;71.10
10121;DHT22;5100;45.176;5.714;2023-06-10T07:40:15;24.60;71.00
10121;DHT22;5100;45.176;5.714;2023-06-10T07:45:12;24.80;70.90
10121;DHT22;5100;45.176;5.714;2023-06-10T07:47:38;24.80;70.70
10121;DHT22;5100;45.176;5.714;2023-06-10T07:50:05;24.90;70.50
10121;DHT22;5100;45.176;5.714;2023-06-10T07:52:31;24.90;70.20
10121;DHT22;5100;45.176;5.714;2023-06-10T07:54:57;25.00;70.00
10121;DHT22;5100;45.176;5.714;2023-06-10T07:57:23;25.00;69.80
10121;DHT22;5100;45.176;5.714;2023-06-10T07:59:49;25.10;69.60
10121;DHT22;5100;45.176;5.714;2023-06-10T08:02:15;25.10;69.30
10121;DHT22;5100;45.176;5.714;2023-06-10T08:04:41;25.20;69.10
10121;DHT22;5100;45.176;5.714;2023-06-10T08:07:07;25.20;69.00
10121;DHT22;5100;45.176;5.714;2023-06-10T08:09:33;25.30;68.90
10121;DHT22;5100;45.176;5.714;2023-06-10T08:12:00;25.30;68.80
10121;DHT22;5100;45.176;5.714;2023-06-10T08:14:26;25.40;68.40
10121;DHT22;5100;45.176;5.714;2023-06-10T08:16:52;25.40;67.80
10121;DHT22;5100;45.176;5.714;2023-06-10T08:19:19;25.50;67.40
10121;DHT22;5100;45.176;5.714;2023-06-10T08:21:45;25.50;67.10
10121;DHT22;5100;45.176;5.714;2023-06-10T08:24:10;25.50;66.90
10121;DHT22;5100;45.176;5.714;2023-06-10T08:26:38;25.60;66.80
10121;DHT22;5100;45.176;5.714;2023-06-10T08:29:04;25.60;66.60
10121;DHT22;5100;45.176;5.714;2023-06-10T08:31:30;25.60;66.40
10121;DHT22;5100;45.176;5.714;2023-06-10T08:33:56;25.60;66.40
10121;DHT22;5100;45.176;5.714;2023-06-10T08:36:22;25.60;66.50
10121;DHT22;5100;45.176;5.714;2023-06-10T08:38:48;25.60;66.30
10121;DHT22;5100;45.176;5.714;2023-06-10T08:41:17;25.60;66.10
10121;DHT22;5100;45.176;5.714;2023-06-10T08:43:57;25.60;66.00
10121;DHT22;5100;45.176;5.714;2023-06-10T08:46:25;25.70;65.80
10121;DHT22;5100;45.176;5.714;2023-06-10T08:48:55;25.70;65.70
10121;DHT22;5100;45.176;5.714;2023-06-10T08:51:23;25.70;65.70
10121;DHT22;5100;45.176;5.714;2023-06-10T08:53:59;25.70;65.70
10121;DHT22;5100;45.176;5.714;2023-06-10T08:56:27;25.70;65.60
10121;DHT22;5100;45.176;5.714;2023-06-10T08:58:54;25.70;65.50
10121;DHT22;5100;45.176;5.714;2023-06-10T09:01:24;25.80;65.10
10121;DHT22;5100;45.176;5.714;2023-06-10T09:03:50;25.80;64.60
10121;DHT22;5100;45.176;5.714;2023-06-10T09:06:18;25.80;64.60
10121;DHT22;5100;45.176;5.714;2023-06-10T09:08:44;25.80;64.40
10121;DHT22;5100;45.176;5.714;2023-06-10T09:11:10;25.80;64.00
10121;DHT22;5100;45.176;5.714;2023-06-10T09:13:36;25.90;64.00
10121;DHT22;5100;45.176;5.714;2023-06-10T09:16:02;25.90;63.90
10121;DHT22;5100;45.176;5.714;2023-06-10T09:18:29;25.90;63.90
10121;DHT22;5100;45.176;5.714;2023-06-10T09:20:56;26.00;63.90
10121;DHT22;5100;45.176;5.714;2023-06-10T09:23:22;26.00;63.40
10121;DHT22;5100;45.176;5.714;2023-06-10T09:25:56;26.00;63.00
10121;DHT22;5100;45.176;5.714;2023-06-10T09:28:24;26.00;63.10
10121;DHT22;5100;45.176;5.714;2023-06-10T09:31:04;26.10;62.70
10121;DHT22;5100;45.176;5.714;2023-06-10T09:33:31;26.10;62.70
10121;DHT22;5100;45.176;5.714;2023-06-10T09:35:58;26.10;62.60
10121;DHT22;5100;45.176;5.714;2023-06-10T09:38:30;26.10;62.80
10121;DHT22;5100;45.176;5.714;2023-06-10T09:40:58;26.20;62.80
10121;DHT22;5100;45.176;5.714;2023-06-10T09:43:41;26.20;62.70
10121;DHT22;5100;45.176;5.714;2023-06-10T09:46:17;26.20;62.70
10121;DHT22;5100;45.176;5.714;2023-06-10T09:48:45;26.20;62.90
10121;DHT22;5100;45.176;5.714;2023-06-10T09:51:13;26.20;62.90
10121;DHT22;5100;45.176;5.714;2023-06-10T09:53:40;26.30;63.00
10121;DHT22;5100;45.176;5.714;2023-06-10T09:56:06;26.30;63.10
10121;DHT22;5100;45.176;5.714;2023-06-10T09:58:37;26.30;63.10
10121;DHT22;5100;45.176;5.714;2023-06-10T10:01:10;26.40;63.10
10121;DHT22;5100;45.176;5.714;2023-06-10T10:03:49;26.40;63.10
10121;DHT22;5100;45.176;5.714;2023-06-10T10:06:16;26.40;63.20
10121;DHT22;5100;45.176;5.714;2023-06-10T10:08:44;26.40;63.10
10121;DHT22;5100;45.176;5.714;2023-06-10T10:11:10;26.40;63.00
10121;DHT22;5100;45.176;5.714;2023-06-10T10:13:37;26.40;62.60
10121;DHT22;5100;45.176;5.714;2023-06-10T10:16:09;26.40;62.50
10121;DHT22;5100;45.176;5.714;2023-06-10T10:18:40;26.50;62.70
10121;DHT22;5100;45.176;5.714;2023-06-10T10:21:11;26.50;62.70
10121;DHT22;5100;45.176;5.714;2023-06-10T10:26:12;26.50;62.90
10121;DHT22;5100;45.176;5.714;2023-06-10T10:28:58;26.50;62.80
10121;DHT22;5100;45.176;5.714;2023-06-10T10:31:27;26.60;62.60
10121;DHT22;5100;45.176;5.714;2023-06-10T10:33:58;26.50;62.60
10121;DHT22;5100;45.176;5.714;2023-06-10T10:36:25;26.60;62.60
10121;DHT22;5100;45.176;5.714;2023-06-10T10:38:51;26.60;62.70
10121;DHT22;5100;45.176;5.714;2023-06-10T10:41:18;26.60;62.60
10121;DHT22;5100;45.176;5.714;2023-06-10T10:43:46;26.60;62.40
10121;DHT22;5100;45.176;5.714;2023-06-10T10:46:15;26.60;61.80
10121;DHT22;5100;45.176;5.714;2023-06-10T10:48:42;26.70;61.50
10121;DHT22;5100;45.176;5.714;2023-06-10T10:51:09;26.70;61.50
10121;DHT22;5100;45.176;5.714;2023-06-10T10:53:39;26.70;61.50
10121;DHT22;5100;45.176;5.714;2023-06-10T10:56:13;26.70;61.40
10121;DHT22;5100;45.176;5.714;2023-06-10T10:58:40;26.70;61.10
10121;DHT22;5100;45.176;5.714;2023-06-10T11:01:13;26.70;61.00
10121;DHT22;5100;45.176;5.714;2023-06-10T11:03:45;26.80;61.10
10121;DHT22;5100;45.176;5.714;2023-06-10T11:06:17;26.80;60.90
10121;DHT22;5100;45.176;5.714;2023-06-10T11:11:21;26.80;60.90
10121;DHT22;5100;45.176;5.714;2023-06-10T11:16:31;26.80;61.00
10121;DHT22;5100;45.176;5.714;2023-06-10T11:19:04;26.80;61.00
10121;DHT22;5100;45.176;5.714;2023-06-10T11:21:30;26.80;61.20
10121;DHT22;5100;45.176;5.714;2023-06-10T11:23:58;26.80;61.30
10121;DHT22;5100;45.176;5.714;2023-06-10T11:31:33;26.90;60.60
10121;DHT22;5100;45.176;5.714;2023-06-10T11:34:03;26.90;60.70
10121;DHT22;5100;45.176;5.714;2023-06-10T11:36:31;26.90;60.20
10121;DHT22;5100;45.176;5.714;2023-06-10T11:38:59;26.90;59.80
10121;DHT22;5100;45.176;5.714;2023-06-10T11:41:27;27.00;59.50
10121;DHT22;5100;45.176;5.714;2023-06-10T11:43:55;27.00;59.40
10121;DHT22;5100;45.176;5.714;2023-06-10T11:46:24;27.00;59.50
10121;DHT22;5100;45.176;5.714;2023-06-10T11:48:55;27.00;59.50
10121;DHT22;5100;45.176;5.714;2023-06-10T11:51:23;27.00;59.30
10121;DHT22;5100;45.176;5.714;2023-06-10T11:53:50;27.00;59.30
10121;DHT22;5100;45.176;5.714;2023-06-10T11:56:23;27.00;59.30
10121;DHT22;5100;45.176;5.714;2023-06-10T11:58:56;27.00;59.40
10121;DHT22;5100;45.176;5.714;2023-06-10T12:01:25;27.00;59.40
10121;DHT22;5100;45.176;5.714;2023-06-10T12:04:03;27.00;59.50
10121;DHT22;5100;45.176;5.714;2023-06-10T12:06:51;27.00;59.90
10121;DHT22;5100;45.176;5.714;2023-06-10T12:09:22;27.00;60.00
10121;DHT22;5100;45.176;5.714;2023-06-10T12:12:02;27.10;59.80
10121;DHT22;5100;45.176;5.714;2023-06-10T12:17:20;27.10;59.10
10121;DHT22;5100;45.176;5.714;2023-06-10T12:19:47;27.10;59.40
10121;DHT22;5100;45.176;5.714;2023-06-10T12:22:14;27.10;58.60
10121;DHT22;5100;45.176;5.714;2023-06-10T12:24:58;27.10;58.80
10121;DHT22;5100;45.176;5.714;2023-06-10T12:27:29;27.20;58.90
10121;DHT22;5100;45.176;5.714;2023-06-10T12:29:57;27.20;58.50
10121;DHT22;5100;45.176;5.714;2023-06-10T12:32:46;27.20;58.80
10121;DHT22;5100;45.176;5.714;2023-06-10T12:35:17;27.30;58.90
10121;DHT22;5100;45.176;5.714;2023-06-10T12:38:03;27.30;58.80
10121;DHT22;5100;45.176;5.714;2023-06-10T12:40:34;27.30;58.60
10121;DHT22;5100;45.176;5.714;2023-06-10T12:43:02;27.30;58.20
10121;DHT22;5100;45.176;5.714;2023-06-10T12:45:28;27.40;57.80
10121;DHT22;5100;45.176;5.714;2023-06-10T12:50:35;27.40;57.30
10121;DHT22;5100;45.176;5.714;2023-06-10T12:53:03;27.40;57.10
10121;DHT22;5100;45.176;5.714;2023-06-10T12:55:29;27.40;57.20
10121;DHT22;5100;45.176;5.714;2023-06-10T12:57:56;27.40;56.70
10121;DHT22;5100;45.176;5.714;2023-06-10T13:00:23;27.40;56.50
10121;DHT22;5100;45.176;5.714;2023-06-10T13:02:52;27.40;56.20
10121;DHT22;5100;45.176;5.714;2023-06-10T13:05:19;27.40;56.20
10121;DHT22;5100;45.176;5.714;2023-06-10T13:07:46;27.40;56.10
10121;DHT22;5100;45.176;5.714;2023-06-10T13:10:16;27.50;56.10
10121;DHT22;5100;45.176;5.714;2023-06-10T13:12:43;27.50;56.00
10121;DHT22;5100;45.176;5.714;2023-06-10T13:15:10;27.50;55.80
10121;DHT22;5100;45.176;5.714;2023-06-10T13:17:37;27.40;55.80
10121;DHT22;5100;45.176;5.714;2023-06-10T13:20:04;27.40;55.90
10121;DHT22;5100;45.176;5.714;2023-06-10T13:22:31;27.40;56.00
10121;DHT22;5100;45.176;5.714;2023-06-10T13:24:59;27.50;56.00
10121;DHT22;5100;45.176;5.714;2023-06-10T13:27:28;27.50;56.00
10121;DHT22;5100;45.176;5.714;2023-06-10T13:29:55;27.50;55.70
10121;DHT22;5100;45.176;5.714;2023-06-10T13:32:21;27.50;54.80
10121;DHT22;5100;45.176;5.714;2023-06-10T13:34:47;27.50;54.70
10121;DHT22;5100;45.176;5.714;2023-06-10T13:37:16;27.50;54.60
10121;DHT22;5100;45.176;5.714;2023-06-10T13:39:45;27.60;54.60
10121;DHT22;5100;45.176;5.714;2023-06-10T13:42:20;27.60;54.90
10121;DHT22;5100;45.176;5.714;2023-06-10T13:44:47;27.60;55.20
10121;DHT22;5100;45.176;5.714;2023-06-10T13:47:17;27.60;55.30
10121;DHT22;5100;45.176;5.714;2023-06-10T13:49:43;27.60;55.30
10121;DHT22;5100;45.176;5.714;2023-06-10T13:52:09;27.60;55.20
10121;DHT22;5100;45.176;5.714;2023-06-10T13:54:35;27.70;55.40
10121;DHT22;5100;45.176;5.714;2023-06-10T13:57:02;27.70;55.60
10121;DHT22;5100;45.176;5.714;2023-06-10T13:59:28;27.70;56.00
10121;DHT22;5100;45.176;5.714;2023-06-10T14:01:54;27.70;55.80
10121;DHT22;5100;45.176;5.714;2023-06-10T14:04:22;27.70;56.00
10121;DHT22;5100;45.176;5.714;2023-06-10T14:06:48;27.80;56.40
10121;DHT22;5100;45.176;5.714;2023-06-10T14:09:14;27.80;56.30
10121;DHT22;5100;45.176;5.714;2023-06-10T14:11:41;27.80;56.20
10121;DHT22;5100;45.176;5.714;2023-06-10T14:14:07;27.80;56.50
10121;DHT22;5100;45.176;5.714;2023-06-10T14:16:33;27.80;56.50
10121;DHT22;5100;45.176;5.714;2023-06-10T14:18:59;27.90;57.00
10121;DHT22;5100;45.176;5.714;2023-06-10T14:21:26;27.90;57.10
10121;DHT22;5100;45.176;5.714;2023-06-10T14:23:53;27.90;57.40
10121;DHT22;5100;45.176;5.714;2023-06-10T14:26:19;27.90;57.60
10121;DHT22;5100;45.176;5.714;2023-06-10T14:28:48;27.90;57.10
10121;DHT22;5100;45.176;5.714;2023-06-10T14:31:15;27.90;57.00
10121;DHT22;5100;45.176;5.714;2023-06-10T14:33:41;27.90;56.60
10121;DHT22;5100;45.176;5.714;2023-06-10T14:36:10;28.00;57.00
10121;DHT22;5100;45.176;5.714;2023-06-10T14:38:36;28.00;57.00
10121;DHT22;5100;45.176;5.714;2023-06-10T14:41:02;28.00;56.80
10121;DHT22;5100;45.176;5.714;2023-06-10T14:43:28;28.00;57.00
10121;DHT22;5100;45.176;5.714;2023-06-10T14:45:54;28.00;57.30
10121;DHT22;5100;45.176;5.714;2023-06-10T14:48:22;28.00;56.80
10121;DHT22;5100;45.176;5.714;2023-06-10T14:50:48;28.00;56.60
10121;DHT22;5100;45.176;5.714;2023-06-10T14:53:30;28.00;56.70
10121;DHT22;5100;45.176;5.714;2023-06-10T14:55:56;28.00;56.70
10121;DHT22;5100;45.176;5.714;2023-06-10T14:58:22;28.10;56.70
10121;DHT22;5100;45.176;5.714;2023-06-10T15:00:48;28.10;56.90
10121;DHT22;5100;45.176;5.714;2023-06-10T15:03:14;28.10;57.10
10121;DHT22;5100;45.176;5.714;2023-06-10T15:05:40;28.10;57.10
10121;DHT22;5100;45.176;5.714;2023-06-10T15:08:06;28.10;57.40
10121;DHT22;5100;45.176;5.714;2023-06-10T15:10:32;28.10;57.40
10121;DHT22;5100;45.176;5.714;2023-06-10T15:12:58;28.10;57.40
10121;DHT22;5100;45.176;5.714;2023-06-10T15:15:24;28.10;57.30
10121;DHT22;5100;45.176;5.714;2023-06-10T15:17:52;28.10;57.50
10121;DHT22;5100;45.176;5.714;2023-06-10T15:20:19;28.10;57.50
10121;DHT22;5100;45.176;5.714;2023-06-10T15:22:45;28.10;57.70
10121;DHT22;5100;45.176;5.714;2023-06-10T15:25:12;28.10;58.10
10121;DHT22;5100;45.176;5.714;2023-06-10T15:27:38;28.10;58.40
10121;DHT22;5100;45.176;5.714;2023-06-10T15:30:04;28.10;58.50
10121;DHT22;5100;45.176;5.714;2023-06-10T15:32:31;28.10;58.50
10121;DHT22;5100;45.176;5.714;2023-06-10T15:34:57;28.10;58.50
10121;DHT22;5100;45.176;5.714;2023-06-10T15:37:23;28.10;58.40
10121;DHT22;5100;45.176;5.714;2023-06-10T15:39:49;28.10;58.20
10121;DHT22;5100;45.176;5.714;2023-06-10T15:42:15;28.10;58.30
10121;DHT22;5100;45.176;5.714;2023-06-10T15:44:41;28.10;58.40
10121;DHT22;5100;45.176;5.714;2023-06-10T15:47:07;28.10;57.90
10121;DHT22;5100;45.176;5.714;2023-06-10T15:49:33;28.10;57.80
10121;DHT22;5100;45.176;5.714;2023-06-10T15:51:59;28.10;57.80
10121;DHT22;5100;45.176;5.714;2023-06-10T15:54:25;28.10;57.80
10121;DHT22;5100;45.176;5.714;2023-06-10T15:56:51;28.10;57.90
10121;DHT22;5100;45.176;5.714;2023-06-10T15:59:17;28.10;57.90
10121;DHT22;5100;45.176;5.714;2023-06-10T16:01:43;28.10;57.90
10121;DHT22;5100;45.176;5.714;2023-06-10T16:04:09;28.10;57.80
10121;DHT22;5100;45.176;5.714;2023-06-10T16:06:35;28.10;58.00
10121;DHT22;5100;45.176;5.714;2023-06-10T16:09:02;28.10;57.70
10121;DHT22;5100;45.176;5.714;2023-06-10T16:11:28;28.10;57.50
10121;DHT22;5100;45.176;5.714;2023-06-10T16:13:55;28.10;57.30